Time;durP1;ratioP1;P1;durP2;ratioP2;P2;SDS_P1;SDS_P2;PMS_P1;PMS_P2;Temp;Humidity;BMP_temperature;BMP_pressure;BME280_temperature;BME280_humidity;BME280_pressure;Samples;Min_cycle;Max_cycle;Signal;HPM_P1;HPM_P2
2022/04/12 00:00:27;;;;;;;13.10;7.50;;;;;;;4.94;61.15;95166.91;4981367;28;20194;-76
2022/04/12 00:02:54;;;;;;;16.07;7.30;;;;;;;4.79;61.62;95173.75;4979763;28;20272;-74
2022/04/12 00:05:21;;;;;;;13.10;6.87;;;;;;;4.64;62.07;95169.50;4981322;28;20255;-75
2022/04/12 00:07:47;;;;;;;9.67;6.13;;;;;;;4.59;62.35;95172.56;4981358;28;20191;-74
2022/04/12 00:10:15;;;;;;;11.30;5.83;;;;;;;4.66;62.70;95170.94;4979550;28;20201;-74
2022/04/12 00:12:44;;;;;;;11.23;6.47;;;;;;;4.72;61.94;95177.19;4980903;28;20192;-74
2022/04/12 00:15:12;;;;;;;12.23;7.10;;;;;;;4.78;62.33;95176.50;4981798;28;20240;-74
2022/04/12 00:20:21;;;;;;;15.90;7.37;;;;;;;4.90;62.27;95172.59;4948413;28;20275;-76
2022/04/12 00:22:48;;;;;;;13.37;7.57;;;;;;;4.94;60.86;95169.50;4981320;28;20199;-74
2022/04/12 00:25:15;;;;;;;9.80;6.57;;;;;;;4.98;61.75;95164.81;4981728;28;20233;-74
2022/04/12 00:27:44;;;;;;;11.73;7.37;;;;;;;4.95;61.37;95157.41;4980588;28;20197;-74
2022/04/12 00:30:12;;;;;;;12.47;7.17;;;;;;;5.04;61.64;95166.69;4979331;28;20218;-74
2022/04/12 00:32:39;;;;;;;12.97;7.33;;;;;;;5.07;62.15;95162.00;4981534;28;20275;-74
2022/04/12 00:35:06;;;;;;;11.47;6.73;;;;;;;5.08;62.59;95157.63;4980744;28;20198;-75
2022/04/12 00:37:33;;;;;;;14.07;6.20;;;;;;;4.83;62.03;95145.91;4979598;28;20197;-74
2022/04/12 00:40:00;;;;;;;13.67;6.40;;;;;;;4.80;63.18;95159.13;4981377;28;20207;-74
2022/04/12 00:42:27;;;;;;;12.37;6.30;;;;;;;4.69;62.84;95156.94;4980902;28;20194;-75
2022/04/12 00:44:55;;;;;;;14.40;6.50;;;;;;;4.78;62.77;95140.47;4978961;28;20289;-75
2022/04/12 00:47:22;;;;;;;10.73;5.60;;;;;;;4.63;62.84;95155.84;4980733;28;20197;-75
2022/04/12 00:49:48;;;;;;;11.37;6.17;;;;;;;4.57;63.14;95159.09;4981081;28;20691;-75
2022/04/12 00:52:17;;;;;;;10.53;5.77;;;;;;;4.53;62.90;95150.13;4980557;28;20193;-75
2022/04/12 00:54:44;;;;;;;14.30;6.47;;;;;;;4.57;62.87;95149.59;4984333;28;20191;-74
2022/04/12 00:57:12;;;;;;;12.27;7.03;;;;;;;4.55;63.33;95146.41;4985892;28;20201;-74
2022/04/12 00:59:39;;;;;;;11.93;7.20;;;;;;;4.62;63.05;95154.22;4982335;28;20201;-74
2022/04/12 01:02:08;;;;;;;12.80;7.00;;;;;;;4.66;63.28;95147.78;4984249;28;20205;-74
2022/04/12 01:04:35;;;;;;;13.07;7.80;;;;;;;4.74;63.35;95146.91;4982922;28;20718;-74
2022/04/12 01:07:02;;;;;;;14.23;8.73;;;;;;;4.76;63.29;95152.72;4984225;28;20199;-74
2022/04/12 01:09:29;;;;;;;15.33;8.53;;;;;;;4.77;63.57;95147.38;4982582;28;20247;-74
2022/04/12 01:11:57;;;;;;;17.40;8.40;;;;;;;4.78;64.42;95146.44;4984726;28;20190;-75
2022/04/12 01:14:25;;;;;;;14.43;8.23;;;;;;;4.77;65.42;95141.44;4983430;28;20203;-76
2022/04/12 01:16:52;;;;;;;13.50;8.40;;;;;;;4.74;64.76;95147.72;4982640;28;20204;-75
2022/04/12 01:19:21;;;;;;;13.87;8.87;;;;;;;4.78;65.70;95143.84;4984648;28;20189;-74
2022/04/12 01:21:53;;;;;;;14.37;8.40;;;;;;;4.75;66.32;95149.34;4984216;28;20202;-76
2022/04/12 01:24:22;;;;;;;16.20;8.37;;;;;;;4.71;67.21;95147.25;4983079;28;20211;-75
2022/04/12 01:26:49;;;;;;;15.30;8.13;;;;;;;4.67;66.19;95146.81;4988178;28;20209;-75
2022/04/12 01:29:15;;;;;;;13.03;7.30;;;;;;;4.61;65.10;95147.50;4982496;28;20666;-75
2022/04/12 01:31:42;;;;;;;13.80;7.60;;;;;;;4.63;63.71;95148.13;4985483;28;20196;-75
2022/04/12 01:34:09;;;;;;;16.20;7.60;;;;;;;4.64;64.78;95141.19;4983193;28;20192;-76
2022/04/12 01:36:36;;;;;;;15.37;7.57;;;;;;;4.54;67.34;95138.81;4984499;28;20201;-76
2022/04/12 01:39:03;;;;;;;13.73;7.77;;;;;;;4.53;66.38;95150.13;4984292;28;20220;-75
2022/04/12 01:41:31;;;;;;;13.70;8.00;;;;;;;4.44;65.73;95139.03;4984472;28;20673;-75
2022/04/12 01:43:58;;;;;;;13.63;8.27;;;;;;;4.47;67.50;95140.50;4984069;28;20217;-76
2022/04/12 01:46:25;;;;;;;12.60;7.77;;;;;;;4.43;68.33;95129.72;4983166;28;20257;-75
2022/04/12 01:48:52;;;;;;;13.00;8.03;;;;;;;4.34;69.13;95122.22;4982296;28;20196;-77
2022/04/12 01:51:19;;;;;;;12.03;7.77;;;;;;;4.41;69.58;95128.28;4983799;28;20215;-75
2022/04/12 01:53:46;;;;;;;11.20;7.17;;;;;;;4.30;68.77;95139.75;4983947;28;20579;-76
2022/04/12 01:56:13;;;;;;;17.67;7.93;;;;;;;4.26;68.79;95141.06;4986959;28;20209;-76
2022/04/12 01:58:42;;;;;;;12.53;7.20;;;;;;;4.28;70.39;95141.69;4983497;28;20225;-76
2022/04/12 02:01:09;;;;;;;13.20;7.60;;;;;;;4.28;70.28;95139.13;4981438;28;20193;-76
2022/04/12 02:03:35;;;;;;;18.13;8.43;;;;;;;4.23;71.46;95132.88;4981596;28;20227;-76
2022/04/12 02:06:02;;;;;;;15.60;9.63;;;;;;;4.18;69.05;95133.38;4983447;28;20193;-76
2022/04/12 02:08:29;;;;;;;17.70;10.27;;;;;;;4.18;68.42;95130.00;4981097;28;20201;-76
2022/04/12 02:10:56;;;;;;;16.87;10.83;;;;;;;4.23;66.99;95136.25;4983524;28;20228;-76
2022/04/12 02:13:23;;;;;;;17.30;8.77;;;;;;;4.26;67.63;95130.78;4982263;28;20194;-77
2022/04/12 02:15:51;;;;;;;13.73;7.67;;;;;;;4.34;65.59;95135.06;4981731;28;20193;-77
2022/04/12 02:18:18;;;;;;;13.43;7.83;;;;;;;4.38;64.55;95129.44;4981032;28;20192;-77
2022/04/12 02:20:45;;;;;;;14.30;7.63;;;;;;;4.36;65.21;95120.25;4982320;28;20911;-77
2022/04/12 02:23:12;;;;;;;17.63;7.53;;;;;;;4.37;65.91;95124.44;4981742;28;20282;-77
2022/04/12 02:25:39;;;;;;;18.63;8.43;;;;;;;4.37;68.40;95121.88;4985931;28;20212;-78
2022/04/12 02:28:06;;;;;;;17.17;9.23;;;;;;;4.34;69.17;95135.06;4981067;28;20199;-78
2022/04/12 02:30:33;;;;;;;14.60;8.37;;;;;;;4.27;70.07;95119.50;4983606;28;20223;-76
2022/04/12 02:33:01;;;;;;;19.30;8.40;;;;;;;4.20;70.69;95126.28;4980988;28;20201;-76
2022/04/12 02:35:28;;;;;;;19.97;8.47;;;;;;;4.12;71.64;95122.94;4983702;28;20196;-76
2022/04/12 02:37:55;;;;;;;14.13;8.17;;;;;;;4.07;72.46;95120.09;4983454;28;20655;-77
2022/04/12 02:40:22;;;;;;;18.57;9.20;;;;;;;4.08;72.43;95124.25;4980548;28;20207;-75
2022/04/12 02:42:48;;;;;;;15.77;8.60;;;;;;;4.03;73.32;95127.31;4980689;28;20235;-77
2022/04/12 02:45:15;;;;;;;13.03;8.23;;;;;;;4.01;73.42;95124.13;4983252;28;20623;-76
2022/04/12 02:47:42;;;;;;;14.27;7.50;;;;;;;3.97;72.70;95122.84;4981991;28;20197;-76
2022/04/12 02:50:10;;;;;;;15.70;8.53;;;;;;;4.00;72.88;95128.47;4984057;28;20208;-76
2022/04/12 02:52:37;;;;;;;13.40;8.23;;;;;;;3.98;73.53;95125.22;4983638;28;20193;-75
2022/04/12 02:55:05;;;;;;;16.60;7.77;;;;;;;3.97;73.16;95127.97;4983605;28;20204;-75
2022/04/12 02:57:32;;;;;;;18.40;8.10;;;;;;;3.93;73.60;95129.28;4983638;28;20574;-76
2022/04/12 02:59:59;;;;;;;14.70;5.90;;;;;;;3.83;72.75;95123.53;4983570;28;20193;-76
2022/04/12 03:02:26;;;;;;;16.37;7.00;;;;;;;3.79;73.36;95124.81;4981288;28;20192;-74
2022/04/12 03:04:53;;;;;;;17.57;8.03;;;;;;;3.70;73.75;95120.66;4981897;28;20734;-77
2022/04/12 03:07:21;;;;;;;21.13;8.40;;;;;;;3.73;75.58;95130.59;4980882;28;20197;-76
2022/04/12 03:09:48;;;;;;;17.20;9.13;;;;;;;3.66;76.55;95127.91;4981134;28;20255;-75
2022/04/12 03:12:14;;;;;;;27.13;9.00;;;;;;;3.71;76.07;95124.84;4980615;28;20690;-75
2022/04/12 03:14:41;;;;;;;14.60;7.73;;;;;;;3.64;76.89;95127.25;4982721;28;20212;-76
2022/04/12 03:17:09;;;;;;;17.00;8.47;;;;;;;3.64;77.15;95129.00;4980817;28;20203;-76
2022/04/12 03:19:36;;;;;;;20.30;8.80;;;;;;;3.58;77.40;95122.00;4982631;28;20662;-76
2022/04/12 03:22:02;;;;;;;16.93;8.30;;;;;;;3.57;77.95;95123.75;4981552;28;20242;-76
2022/04/12 03:24:32;;;;;;;18.90;8.20;;;;;;;3.48;78.19;95129.06;4982239;28;20235;-76
2022/04/12 03:26:58;;;;;;;24.37;7.90;;;;;;;3.46;78.20;95131.00;4979765;28;20751;-76
2022/04/12 03:29:27;;;;;;;20.43;8.00;;;;;;;3.37;78.77;95136.16;4981440;28;20196;-75
2022/04/12 03:31:54;;;;;;;11.93;7.67;;;;;;;3.32;78.62;95138.38;4980169;28;20283;-75
2022/04/12 03:34:21;;;;;;;20.60;8.43;;;;;;;3.24;80.03;95143.50;4980029;28;20200;-75
2022/04/12 03:36:48;;;;;;;18.63;7.77;;;;;;;3.23;80.08;95139.34;4980631;28;20196;-76
2022/04/12 03:39:17;;;;;;;14.23;8.97;;;;;;;3.33;78.63;95139.19;4979520;28;20240;-75
2022/04/12 03:41:46;;;;;;;14.63;8.73;;;;;;;3.30;78.16;95142.88;4981118;28;20274;-76
2022/04/12 03:44:13;;;;;;;14.37;7.87;;;;;;;3.29;77.53;95136.13;4981492;28;20247;-74
2022/04/12 03:46:40;;;;;;;17.20;7.57;;;;;;;3.28;78.33;95136.31;4980293;28;20367;-75
2022/04/12 03:49:07;;;;;;;21.47;7.47;;;;;;;3.23;78.45;95139.34;4980238;28;20196;-72
2022/04/12 03:51:35;;;;;;;25.97;8.90;;;;;;;3.23;78.34;95131.63;4981879;28;20196;-72
2022/04/12 03:54:02;;;;;;;28.70;8.40;;;;;;;3.25;77.63;95131.50;4980522;28;20295;-71
2022/04/12 03:56:29;;;;;;;22.60;8.73;;;;;;;3.25;77.69;95141.75;4983268;28;20566;-73
2022/04/12 03:58:58;;;;;;;24.23;8.63;;;;;;;3.24;78.55;95145.28;4979753;28;20197;-73
2022/04/12 04:01:25;;;;;;;34.20;10.20;;;;;;;3.22;78.64;95142.88;4966863;28;20196;-71
2022/04/12 04:03:52;;;;;;;36.37;11.87;;;;;;;3.26;78.80;95148.50;4981810;28;20666;-72
2022/04/12 04:06:19;;;;;;;41.67;13.90;;;;;;;3.21;78.22;95143.03;4982180;28;20232;-71
2022/04/12 04:08:46;;;;;;;48.63;16.10;;;;;;;3.19;77.53;95148.34;4979907;28;20213;-71
2022/04/12 04:11:12;;;;;;;38.90;14.63;;;;;;;3.10;78.33;95153.63;4980694;28;20212;-71
2022/04/12 04:13:39;;;;;;;39.30;16.60;;;;;;;3.10;78.29;95151.06;4980885;28;20199;-71
2022/04/12 04:16:07;;;;;;;38.10;17.37;;;;;;;3.11;77.90;95153.47;4979425;28;20199;-71
2022/04/12 04:18:35;;;;;;;39.33;16.47;;;;;;;3.09;77.92;95152.81;4978670;28;20201;-70
2022/04/12 04:21:02;;;;;;;35.87;17.23;;;;;;;3.03;78.29;95150.09;4980361;28;20201;-72
2022/04/12 04:23:29;;;;;;;37.90;17.83;;;;;;;3.06;78.54;95154.91;4981250;28;20196;-73
2022/04/12 04:25:56;;;;;;;45.87;19.63;;;;;;;3.04;78.86;95151.69;4983568;28;20225;-72
2022/04/12 04:28:22;;;;;;;47.57;19.80;;;;;;;3.07;79.31;95154.75;4986614;28;20576;-74
2022/04/12 04:30:50;;;;;;;45.20;20.03;;;;;;;3.01;78.98;95155.38;4983829;28;20196;-74
2022/04/12 04:33:19;;;;;;;46.50;21.03;;;;;;;3.09;78.44;95164.88;4981921;28;20256;-74
2022/04/12 04:35:46;;;;;;;50.20;21.90;;;;;;;3.12;78.92;95170.47;4983505;28;20211;-73
2022/04/12 04:38:13;;;;;;;50.73;24.20;;;;;;;3.11;78.83;95175.78;4981209;28;20232;-73
2022/04/12 04:40:40;;;;;;;67.97;32.93;;;;;;;3.17;78.44;95170.00;4983960;28;20654;-73
2022/04/12 04:43:08;;;;;;;55.80;24.10;;;;;;;3.16;78.63;95174.34;4983558;28;20215;-72
2022/04/12 04:45:35;;;;;;;45.70;19.07;;;;;;;3.19;79.68;95179.16;4981770;28;20217;-73
2022/04/12 04:48:04;;;;;;;40.70;18.63;;;;;;;3.28;79.34;95182.53;4983734;28;20196;-72
2022/04/12 04:50:35;;;;;;;47.93;18.03;;;;;;;3.30;79.22;95185.72;4983928;28;20193;-74
2022/04/12 04:53:03;;;;;;;55.67;18.53;;;;;;;3.25;79.87;95178.53;4984297;28;20302;-73
2022/04/12 04:55:31;;;;;;;56.77;21.27;;;;;;;3.40;78.88;95192.34;4986737;28;20200;-72
2022/04/12 04:58:08;;;;;;;44.13;18.03;;;;;;;3.40;79.21;95189.75;4982333;28;20196;-72
2022/04/12 05:00:35;;;;;;;56.50;17.00;;;;;;;3.48;78.80;95194.09;4984323;28;20197;-73
2022/04/12 05:03:03;;;;;;;36.43;15.80;;;;;;;3.52;78.82;95179.94;4983327;28;20193;-72
2022/04/12 05:05:31;;;;;;;28.23;12.90;;;;;;;3.59;78.42;95180.91;4984425;28;20718;-72
2022/04/12 05:08:04;;;;;;;29.27;12.10;;;;;;;3.69;78.48;95183.31;4982583;28;20217;-72
2022/04/12 05:10:32;;;;;;;28.73;12.17;;;;;;;3.73;77.68;95187.94;4985575;28;20232;-73
2022/04/12 05:13:03;;;;;;;31.03;12.50;;;;;;;3.79;76.57;95189.88;4984523;28;20772;-73
2022/04/12 05:15:32;;;;;;;30.80;12.93;;;;;;;3.83;76.32;95192.94;4983340;28;20198;-73
2022/04/12 05:17:58;;;;;;;31.47;12.47;;;;;;;3.87;75.42;95189.84;4984400;28;20218;-70
2022/04/12 05:20:31;;;;;;;34.67;12.00;;;;;;;3.89;74.52;95193.09;4982977;28;20197;-72
2022/04/12 05:22:59;;;;;;;27.97;11.90;;;;;;;3.98;74.63;95194.66;4981715;28;20196;-71
2022/04/12 05:25:26;;;;;;;31.93;12.53;;;;;;;3.98;74.12;95192.06;4987256;28;20231;-70
2022/04/12 05:27:57;;;;;;;25.20;12.07;;;;;;;3.99;74.21;95191.13;4982284;28;20227;-71
2022/04/12 05:30:24;;;;;;;22.40;11.57;;;;;;;4.03;73.34;95193.38;4983760;28;20478;-71
2022/04/12 05:32:51;;;;;;;24.70;10.93;;;;;;;4.11;72.32;95190.78;4983205;28;20201;-72
2022/04/12 05:35:18;;;;;;;26.47;10.70;;;;;;;4.22;71.79;95187.84;4982286;28;20217;-72
2022/04/12 05:37:48;;;;;;;27.23;10.53;;;;;;;4.30;70.44;95188.63;4982513;28;20245;-72
2022/04/12 05:40:23;;;;;;;29.70;11.97;;;;;;;4.39;70.56;95189.38;4978347;28;20300;-74
2022/04/12 05:43:29;;;;;;;26.67;13.30;;;;;;;4.40;69.77;95178.13;4984951;28;20195;-72
2022/04/12 05:45:55;;;;;;;29.37;13.63;;;;;;;4.58;69.81;95183.84;4984502;28;20525;-75
2022/04/12 05:48:22;;;;;;;35.03;14.07;;;;;;;4.63;70.09;95181.56;4983696;28;20201;-76
2022/04/12 05:50:49;;;;;;;32.33;14.57;;;;;;;4.67;68.94;95187.19;4983542;28;20253;-71
2022/04/12 05:53:16;;;;;;;27.43;14.27;;;;;;;4.71;68.89;95180.72;4981589;28;20195;-71
2022/04/12 05:55:44;;;;;;;29.90;13.37;;;;;;;4.66;67.89;95186.38;4985669;28;20636;-71
2022/04/12 05:58:22;;;;;;;28.13;13.27;;;;;;;4.72;67.21;95174.63;4983455;28;20194;-72
2022/04/12 06:01:06;;;;;;;39.27;15.37;;;;;;;4.68;67.74;95186.19;4982747;28;20205;-72
2022/04/12 06:03:33;;;;;;;26.97;13.73;;;;;;;4.70;67.50;95195.38;4984757;28;20206;-71
2022/04/12 06:06:02;;;;;;;24.27;11.30;;;;;;;4.68;68.25;95199.88;4982893;28;20219;-71
2022/04/12 06:08:32;;;;;;;22.20;11.57;;;;;;;4.75;67.54;95197.44;4980495;28;20195;-72
2022/04/12 06:11:03;;;;;;;24.77;12.57;;;;;;;4.88;68.22;95200.25;4980544;28;20676;-85
2022/04/12 06:13:30;;;;;;;28.27;11.83;;;;;;;4.95;66.85;95206.34;4984798;28;20209;-80
2022/04/12 06:15:57;;;;;;;22.03;10.97;;;;;;;5.02;66.49;95208.06;4979686;28;20206;-78
2022/04/12 06:18:23;;;;;;;23.10;10.83;;;;;;;5.05;67.49;95202.56;4988801;28;20202;-81
2022/04/12 06:20:50;;;;;;;19.83;10.50;;;;;;;5.17;65.92;95218.44;4991151;28;20678;-80
2022/04/12 06:23:17;;;;;;;20.33;10.17;;;;;;;5.21;66.01;95211.97;4981810;28;20190;-80
2022/04/12 06:25:44;;;;;;;28.67;10.53;;;;;;;5.23;66.51;95207.44;4985351;28;20231;-80
2022/04/12 06:28:13;;;;;;;33.83;10.37;;;;;;;5.25;66.60;95217.59;4993241;28;20203;-80
2022/04/12 06:30:40;;;;;;;18.43;9.20;;;;;;;5.26;66.06;95209.69;4992437;28;20208;-80
2022/04/12 06:33:06;;;;;;;18.20;9.87;;;;;;;5.32;66.22;95219.31;4986623;28;20202;-80
2022/04/12 06:35:35;;;;;;;21.13;9.97;;;;;;;5.42;66.26;95213.94;4986566;28;20219;-77
2022/04/12 06:38:03;;;;;;;20.53;9.60;;;;;;;5.41;67.65;95218.28;4981018;28;20337;-78
2022/04/12 06:40:30;;;;;;;20.87;9.33;;;;;;;5.48;66.42;95221.75;4987322;28;20700;-79
2022/04/12 06:42:57;;;;;;;23.17;9.50;;;;;;;5.55;67.32;95224.47;4983573;28;20195;-78
2022/04/12 06:45:25;;;;;;;24.83;9.37;;;;;;;5.69;66.09;95216.78;4982725;28;20255;-78
2022/04/12 06:47:54;;;;;;;18.37;9.87;;;;;;;5.82;65.67;95229.09;4980944;28;20266;-78
2022/04/12 06:50:22;;;;;;;25.20;9.37;;;;;;;5.95;64.81;95216.41;4979706;28;20205;-79
2022/04/12 06:52:49;;;;;;;14.63;8.67;;;;;;;6.04;64.56;95217.13;4988899;28;20214;-81
2022/04/12 06:55:16;;;;;;;24.47;9.73;;;;;;;6.11;64.45;95210.31;4984293;28;20200;-80
2022/04/12 06:57:44;;;;;;;26.83;9.63;;;;;;;6.26;64.09;95221.44;4992965;28;20277;-80
2022/04/12 07:00:11;;;;;;;16.93;9.83;;;;;;;6.38;63.40;95220.00;4987253;28;20210;-81
2022/04/12 07:02:40;;;;;;;21.60;9.17;;;;;;;6.43;63.38;95222.88;4992851;28;20199;-80
2022/04/12 07:05:09;;;;;;;19.73;8.87;;;;;;;6.52;62.72;95215.84;4992334;28;20191;-77
2022/04/12 07:07:36;;;;;;;25.63;9.83;;;;;;;6.66;63.05;95215.84;4987455;28;20208;-83
2022/04/12 07:10:04;;;;;;;14.47;9.00;;;;;;;6.78;62.06;95213.59;4975635;28;20197;-80
2022/04/12 07:12:31;;;;;;;15.83;7.83;;;;;;;6.83;60.62;95206.09;4980810;28;20200;-80
2022/04/12 07:14:57;;;;;;;17.40;7.70;;;;;;;6.71;60.02;95213.50;4992379;28;20686;-81
2022/04/12 07:17:25;;;;;;;13.07;7.37;;;;;;;6.76;59.13;95212.94;4981130;28;20197;-82
2022/04/12 07:19:55;;;;;;;16.07;7.40;;;;;;;6.82;58.48;95199.31;4975289;28;20839;-83
2022/04/12 07:22:22;;;;;;;17.90;7.90;;;;;;;6.90;58.58;95209.53;4984691;28;20839;-81
2022/04/12 07:24:49;;;;;;;10.13;4.40;;;;;;;7.00;51.52;95198.94;4985970;28;20193;-81
2022/04/12 07:27:16;;;;;;;7.33;4.47;;;;;;;6.98;51.97;95213.81;4986903;28;20223;-81
2022/04/12 07:29:43;;;;;;;6.33;4.40;;;;;;;7.15;50.26;95215.19;4990357;28;20701;-81
2022/04/12 07:32:10;;;;;;;5.63;4.50;;;;;;;7.27;50.23;95218.91;4984824;28;20219;-81
2022/04/12 07:34:37;;;;;;;7.37;3.70;;;;;;;7.31;48.07;95218.34;4986920;28;20200;-81
2022/04/12 07:37:06;;;;;;;9.33;5.00;;;;;;;7.35;48.34;95227.34;4986221;28;20211;-82
2022/04/12 07:39:33;;;;;;;5.07;3.67;;;;;;;7.40;46.43;95213.84;4985822;28;20227;-81
2022/04/12 07:42:00;;;;;;;5.30;3.50;;;;;;;7.48;46.63;95221.50;4972741;28;20204;-81
2022/04/12 07:44:27;;;;;;;12.57;6.47;;;;;;;7.51;46.73;95215.94;4990189;28;20270;-81
2022/04/12 07:46:54;;;;;;;5.00;3.47;;;;;;;7.46;46.27;95218.28;4985996;28;20720;-80
2022/04/12 07:49:20;;;;;;;8.00;4.43;;;;;;;7.53;46.29;95223.53;4980656;28;20307;-82
2022/04/12 07:51:47;;;;;;;7.50;3.80;;;;;;;7.63;45.37;95224.81;4983397;28;20558;-80
2022/04/12 07:54:16;;;;;;;5.30;3.77;;;;;;;7.73;45.19;95214.97;4986324;28;20594;-81
2022/04/12 07:56:42;;;;;;;10.23;5.53;;;;;;;7.79;44.09;95210.84;4991420;28;20203;-80
2022/04/12 07:59:10;;;;;;;6.23;3.20;;;;;;;7.64;44.68;95204.94;4984133;28;20197;-83
2022/04/12 08:01:37;;;;;;;6.43;3.97;;;;;;;7.76;45.15;95213.81;4988198;28;20671;-81
2022/04/12 08:04:04;;;;;;;7.87;3.63;;;;;;;7.80;44.62;95207.25;4982464;28;20204;-84
2022/04/12 08:06:31;;;;;;;9.43;3.87;;;;;;;7.91;43.86;95207.53;4979720;28;20574;-82
2022/04/12 08:08:58;;;;;;;5.73;3.23;;;;;;;7.93;43.31;95197.81;4983044;28;20284;-82
2022/04/12 08:11:26;;;;;;;6.87;4.20;;;;;;;8.11;44.73;95205.09;4972545;28;20576;-82
2022/04/12 08:13:53;;;;;;;4.70;3.47;;;;;;;8.00;45.12;95203.03;4988522;28;20192;-81
2022/04/12 08:16:20;;;;;;;4.93;3.43;;;;;;;7.98;44.56;95190.28;4977007;28;20243;-83
2022/04/12 08:18:47;;;;;;;5.40;3.50;;;;;;;8.11;44.73;95189.56;4979092;28;20212;-81
2022/04/12 08:21:14;;;;;;;6.70;3.80;;;;;;;8.17;45.13;95183.63;4990796;28;20651;-79
2022/04/12 08:23:41;;;;;;;9.17;4.30;;;;;;;8.32;44.28;95184.34;4991687;28;20303;-82
2022/04/12 08:26:08;;;;;;;5.70;3.40;;;;;;;8.32;42.76;95192.13;4991193;28;20247;-82
2022/04/12 08:28:36;;;;;;;5.27;3.43;;;;;;;8.44;42.66;95194.97;4991325;28;20286;-79
2022/04/12 08:31:04;;;;;;;6.10;4.23;;;;;;;8.47;44.05;95187.63;4983030;28;20192;-85
2022/04/12 08:33:33;;;;;;;10.17;3.60;;;;;;;8.64;48.72;95192.47;4980472;28;20203;-81
2022/04/12 08:36:00;;;;;;;6.10;3.40;;;;;;;8.83;45.06;95186.59;4988680;28;20600;-76
2022/04/12 08:38:33;;;;;;;6.90;3.37;;;;;;;8.91;43.38;95178.66;4989605;28;20228;-83
2022/04/12 08:41:02;;;;;;;6.17;3.03;;;;;;;8.96;41.86;95182.25;4972572;28;20232;-82
2022/04/12 08:43:30;;;;;;;7.20;3.40;;;;;;;9.00;46.41;95169.72;4987814;28;20196;-81
2022/04/12 08:45:59;;;;;;;5.83;3.10;;;;;;;9.04;42.01;95178.69;4988201;28;20204;-83
2022/04/12 08:48:26;;;;;;;6.10;3.10;;;;;;;8.98;41.35;95174.28;4988615;28;20201;-80
2022/04/12 08:50:54;;;;;;;5.23;3.30;;;;;;;8.99;41.06;95161.13;4983050;28;20207;-80
2022/04/12 08:53:29;;;;;;;6.70;3.53;;;;;;;9.18;42.23;95175.13;4974413;28;20208;-81
2022/04/12 08:55:56;;;;;;;5.63;3.10;;;;;;;9.15;41.62;95172.16;4988097;28;20210;-80
2022/04/12 08:58:26;;;;;;;8.67;3.40;;;;;;;9.28;41.00;95172.97;4982592;28;20664;-78
2022/04/12 09:00:53;;;;;;;5.87;3.47;;;;;;;9.29;41.41;95165.97;4981928;28;20204;-79
2022/04/12 09:03:22;;;;;;;7.87;3.40;;;;;;;9.50;41.03;95176.97;4981167;28;20195;-80
2022/04/12 09:05:49;;;;;;;6.60;3.40;;;;;;;9.58;42.14;95158.63;4978642;28;20273;-80
2022/04/12 09:08:29;;;;;;;6.10;3.70;;;;;;;9.70;42.07;95156.22;4981979;28;20197;-79
2022/04/12 09:11:01;;;;;;;4.77;3.57;;;;;;;9.98;41.62;95156.84;4988154;28;20201;-81
2022/04/12 09:13:29;;;;;;;4.97;3.20;;;;;;;10.10;41.59;95152.59;4980482;28;20234;-79
2022/04/12 09:15:56;;;;;;;9.10;3.30;;;;;;;10.12;41.59;95155.81;4986191;28;20196;-80
2022/04/12 09:18:38;;;;;;;5.33;3.20;;;;;;;10.19;41.10;95148.81;4983870;28;20193;-80
2022/04/12 09:21:14;;;;;;;4.17;2.80;;;;;;;10.42;41.41;95139.78;4988865;28;20615;-80
2022/04/12 09:23:44;;;;;;;4.23;2.57;;;;;;;10.65;41.53;95140.09;4986433;28;20192;-81
2022/04/12 09:26:17;;;;;;;5.63;2.87;;;;;;;10.92;40.15;95135.56;4984106;28;20570;-80
2022/04/12 09:28:44;;;;;;;7.40;3.30;;;;;;;11.21;38.98;95135.00;4977590;28;20192;-79
2022/04/12 09:31:12;;;;;;;4.87;2.70;;;;;;;11.25;38.41;95142.22;4991012;28;20200;-80
2022/04/12 09:33:42;;;;;;;5.83;3.43;;;;;;;11.23;39.87;95140.78;4982827;28;20188;-79
2022/04/12 09:36:10;;;;;;;3.40;2.57;;;;;;;11.25;39.34;95144.00;4978073;28;20718;-79
2022/04/12 09:38:38;;;;;;;5.90;2.93;;;;;;;11.20;38.36;95128.19;4980207;28;20273;-81
2022/04/12 09:41:26;;;;;;;5.80;2.87;;;;;;;11.25;38.83;95133.59;4992541;28;20204;-80
2022/04/12 09:44:08;;;;;;;5.97;3.00;;;;;;;11.34;38.24;95132.34;4981651;28;20196;-79
2022/04/12 09:46:36;;;;;;;4.57;2.47;;;;;;;11.47;38.76;95137.44;4984936;28;20244;-80
2022/04/12 09:49:05;;;;;;;5.50;2.70;;;;;;;11.71;38.63;95128.91;4983236;28;20189;-79
2022/04/12 09:51:36;;;;;;;8.57;3.20;;;;;;;11.86;38.13;95121.53;4985132;28;20204;-79
2022/04/12 09:54:03;;;;;;;4.47;2.90;;;;;;;12.09;37.72;95107.88;4988666;28;20282;-79
2022/04/12 09:56:31;;;;;;;4.00;2.90;;;;;;;12.39;37.51;95100.16;4985263;28;20200;-80
2022/04/12 09:59:00;;;;;;;5.17;3.20;;;;;;;12.72;36.84;95099.78;4981824;28;20200;-79
2022/04/12 10:01:28;;;;;;;5.40;2.90;;;;;;;12.78;37.00;95097.09;4987931;28;20271;-79
2022/04/12 10:03:59;;;;;;;4.83;3.03;;;;;;;13.02;37.18;95088.34;4982058;28;20205;-80
2022/04/12 10:06:29;;;;;;;5.23;3.10;;;;;;;13.36;36.12;95101.75;4980976;28;20766;-79
2022/04/12 10:08:57;;;;;;;4.97;2.40;;;;;;;13.29;35.43;95080.16;4986650;28;20208;-80
2022/04/12 10:11:25;;;;;;;2.97;2.40;;;;;;;13.45;36.12;95079.50;4982818;28;20212;-79
2022/04/12 10:13:52;;;;;;;3.80;2.10;;;;;;;13.77;34.84;95072.16;4980057;28;20275;-79
2022/04/12 10:16:22;;;;;;;5.60;2.50;;;;;;;14.02;35.13;95075.34;4987125;28;20184;-80
2022/04/12 10:18:50;;;;;;;7.00;3.00;;;;;;;14.38;35.14;95071.66;4984597;28;20196;-83
2022/04/12 10:21:19;;;;;;;4.00;2.73;;;;;;;14.78;34.91;95067.22;4980199;28;20551;-81
2022/04/12 10:23:51;;;;;;;4.47;2.90;;;;;;;15.25;34.21;95060.75;4981803;28;20200;-82
2022/04/12 10:26:21;;;;;;;4.07;2.80;;;;;;;15.62;32.95;95063.75;4988036;28;20200;-82
2022/04/12 10:28:52;;;;;;;4.93;2.73;;;;;;;15.90;32.63;95058.41;4980620;28;20197;-83
2022/04/12 10:31:24;;;;;;;5.10;2.33;;;;;;;16.18;32.34;95054.84;4986862;28;20729;-84
2022/04/12 10:33:52;;;;;;;3.93;2.60;;;;;;;16.29;31.75;95063.66;4983474;28;20238;-82
2022/04/12 10:36:19;;;;;;;3.10;2.30;;;;;;;16.02;31.47;95054.88;4982029;28;20197;-82
2022/04/12 10:38:48;;;;;;;5.93;2.50;;;;;;;16.05;32.85;95043.91;4988474;28;20231;-82
2022/04/12 10:41:18;;;;;;;3.80;2.47;;;;;;;15.96;31.94;95045.38;4987813;28;20193;-84
2022/04/12 10:43:45;;;;;;;3.20;2.20;;;;;;;16.23;32.02;95036.56;4982922;28;20193;-83
2022/04/12 10:46:13;;;;;;;3.37;2.27;;;;;;;16.62;31.58;95049.66;4989578;28;20203;-82
2022/04/12 10:48:40;;;;;;;4.07;2.30;;;;;;;16.81;30.80;95032.53;4993047;28;20220;-81
2022/04/12 10:51:08;;;;;;;4.93;2.53;;;;;;;16.99;31.46;95037.47;4983814;28;20192;-82
2022/04/12 10:53:57;;;;;;;4.30;2.30;;;;;;;17.03;30.80;95041.16;4991722;28;20341;-84
2022/04/12 10:56:26;;;;;;;3.03;2.00;;;;;;;17.35;31.14;95038.56;4982385;28;20275;-81
2022/04/12 10:58:53;;;;;;;10.27;2.43;;;;;;;17.29;29.82;95018.53;4987924;28;20287;-82
2022/04/12 11:01:32;;;;;;;5.57;2.30;;;;;;;17.54;29.62;95034.56;4987151;28;20200;-81
2022/04/12 11:04:01;;;;;;;4.17;2.37;;;;;;;17.73;29.12;95029.69;4983971;28;20203;-82
2022/04/12 11:06:29;;;;;;;3.50;2.10;;;;;;;17.80;29.30;95019.75;4988122;28;20254;-81
2022/04/12 11:09:10;;;;;;;2.23;1.83;;;;;;;17.96;28.69;95024.84;4986906;28;20188;-81
2022/04/12 11:11:40;;;;;;;2.07;1.80;;;;;;;18.26;28.46;95015.53;4984382;28;20188;-81
2022/04/12 11:14:25;;;;;;;4.90;2.40;;;;;;;17.86;28.12;95022.16;4983940;28;20252;-80
2022/04/12 11:16:57;;;;;;;4.73;2.17;;;;;;;17.61;28.31;95010.66;4983422;28;20193;-81
2022/04/12 11:19:25;;;;;;;3.40;1.93;;;;;;;17.84;29.16;95015.53;4986851;28;20204;-81
2022/04/12 11:22:05;;;;;;;2.77;2.07;;;;;;;18.13;27.77;95006.25;4986144;28;20667;-82
2022/04/12 11:24:34;;;;;;;3.27;2.20;;;;;;;18.27;27.37;95007.38;4984992;28;20197;-82
2022/04/12 11:27:06;;;;;;;6.63;2.40;;;;;;;18.44;26.48;95002.69;4990021;28;20667;-80
2022/04/12 11:29:33;;;;;;;3.20;1.90;;;;;;;18.17;26.03;94994.19;4973699;28;20201;-81
2022/04/12 11:32:00;;;;;;;6.63;2.17;;;;;;;18.15;27.00;94983.88;4986756;28;20197;-81
2022/04/12 11:34:28;;;;;;;4.20;1.93;;;;;;;18.43;26.58;94987.97;4980897;28;20200;-80
2022/04/12 11:36:58;;;;;;;3.50;1.88;;;;;;;18.62;26.24;94981.19;4980495;28;20209;-81
2022/04/12 11:39:27;;;;;;;4.10;1.88;;;;;;;18.81;25.05;94991.25;4983184;28;20232;-81